SBOSBO PSA / LIRP
Speedbird OnlineSpeedbird Online PSA / LIRP

Pisa International Airport
01:36 3.6°C

Location Pisa, Italy
Latitude: 43.683899
Longitude: 10.3927
Web Airport Website | Wikipedia
Altitude 2 Meter / 6 Feet
Distance 1,159 KM / 720 Miles
from London.
Time Zone UTC +1 hours (Europe/Rome)
Codes IATA: PSA
ICAO: LIRP
Currency £1 equals EUR 1.14
Runways
RunwayLength (m)Surface
04L2792Asphalt
04R2993Asphalt
22L2993Asphalt
22R2792Asphalt
Radio
TypeDescriptionFrequency
APPAPP122.1
GNDGND121.6
TWRTWR119.1
Live ATC
METAR LIRP 270015Z 12012KT CAVOK 04/M01 Q1010 NOSIG
TAF TAF LIRP 262300Z 2700/2724 10010KT 9999 FEW040
Weather As Of 27 Jan 2023 01:36
Description Clear sky
Wind 22 km/h from South-East (120°)
Cloud Cover 0%
Precipitation Rain: none, Snow: none
Sunrise 07:40
Sunset 17:21
Lounges Sala VIP Galilei Lounge (Temporarily Closed), Terminal 1, 1st Floor, Departure Hall
Rotations During the last 90 days there were
39 flights from LHR
7 flights from LCY
36 flights to LHR



Support Speedbird Online

© 2017-2023 Speedbird Online